sensor_id;sensor_type;location;lat;lon;timestamp;temperature;humidity
35920;DHT22;36160;53.370;-6.196;2023-01-06T00:02:22;8.00;99.90
35920;DHT22;36160;53.370;-6.196;2023-01-06T00:04:48;7.90;99.90
35920;DHT22;36160;53.370;-6.196;2023-01-06T00:07:14;7.90;99.90
35920;DHT22;36160;53.370;-6.196;2023-01-06T00:09:39;7.90;99.90
35920;DHT22;36160;53.370;-6.196;2023-01-06T00:12:07;7.90;99.90
35920;DHT22;36160;53.370;-6.196;2023-01-06T00:14:32;7.90;99.90
35920;DHT22;36160;53.370;-6.196;2023-01-06T00:16:58;7.90;99.90
35920;DHT22;36160;53.370;-6.196;2023-01-06T00:19:24;7.90;99.90
35920;DHT22;36160;53.370;-6.196;2023-01-06T00:21:50;7.90;99.90
35920;DHT22;36160;53.370;-6.196;2023-01-06T00:24:15;7.90;99.90
35920;DHT22;36160;53.370;-6.196;2023-01-06T00:26:41;7.90;99.90
35920;DHT22;36160;53.370;-6.196;2023-01-06T00:29:09;8.00;99.90
35920;DHT22;36160;53.370;-6.196;2023-01-06T00:31:36;8.00;99.90
35920;DHT22;36160;53.370;-6.196;2023-01-06T00:34:03;8.00;99.00
35920;DHT22;36160;53.370;-6.196;2023-01-06T00:36:28;8.00;98.60
35920;DHT22;36160;53.370;-6.196;2023-01-06T00:38:54;8.00;96.20
35920;DHT22;36160;53.370;-6.196;2023-01-06T00:41:20;8.00;96.50
35920;DHT22;36160;53.370;-6.196;2023-01-06T00:44:05;8.00;97.60
35920;DHT22;36160;53.370;-6.196;2023-01-06T00:46:31;8.00;95.10
35920;DHT22;36160;53.370;-6.196;2023-01-06T00:48:59;8.00;95.00
35920;DHT22;36160;53.370;-6.196;2023-01-06T00:51:26;8.00;94.00
35920;DHT22;36160;53.370;-6.196;2023-01-06T00:53:52;8.00;94.50
35920;DHT22;36160;53.370;-6.196;2023-01-06T00:56:18;8.00;94.90
35920;DHT22;36160;53.370;-6.196;2023-01-06T00:58:45;7.90;94.50
35920;DHT22;36160;53.370;-6.196;2023-01-06T01:01:11;7.90;94.70
35920;DHT22;36160;53.370;-6.196;2023-01-06T01:03:38;7.90;92.70
35920;DHT22;36160;53.370;-6.196;2023-01-06T01:06:07;7.90;90.60
35920;DHT22;36160;53.370;-6.196;2023-01-06T01:08:34;7.90;91.50
35920;DHT22;36160;53.370;-6.196;2023-01-06T01:11:07;7.80;92.80
35920;DHT22;36160;53.370;-6.196;2023-01-06T01:13:34;7.80;94.90
35920;DHT22;36160;53.370;-6.196;2023-01-06T01:16:04;7.80;97.40
35920;DHT22;36160;53.370;-6.196;2023-01-06T01:18:30;7.80;99.90
35920;DHT22;36160;53.370;-6.196;2023-01-06T01:20:56;7.80;99.90
35920;DHT22;36160;53.370;-6.196;2023-01-06T01:23:21;7.80;99.90
35920;DHT22;36160;53.370;-6.196;2023-01-06T01:25:47;7.80;99.90
35920;DHT22;36160;53.370;-6.196;2023-01-06T01:28:12;7.70;99.90
35920;DHT22;36160;53.370;-6.196;2023-01-06T01:30:38;7.70;99.90
35920;DHT22;36160;53.370;-6.196;2023-01-06T01:33:04;7.70;99.60
35920;DHT22;36160;53.370;-6.196;2023-01-06T01:35:29;7.80;99.90
35920;DHT22;36160;53.370;-6.196;2023-01-06T01:37:55;7.70;99.90
35920;DHT22;36160;53.370;-6.196;2023-01-06T01:40:21;7.70;99.90
35920;DHT22;36160;53.370;-6.196;2023-01-06T01:42:46;7.70;97.90
35920;DHT22;36160;53.370;-6.196;2023-01-06T01:45:28;7.70;98.30
35920;DHT22;36160;53.370;-6.196;2023-01-06T01:48:23;7.70;98.90
35920;DHT22;36160;53.370;-6.196;2023-01-06T01:50:51;7.70;97.40
35920;DHT22;36160;53.370;-6.196;2023-01-06T01:53:30;7.70;95.30
35920;DHT22;36160;53.370;-6.196;2023-01-06T01:55:59;7.70;93.40
35920;DHT22;36160;53.370;-6.196;2023-01-06T01:58:42;7.80;90.50
35920;DHT22;36160;53.370;-6.196;2023-01-06T02:01:10;7.70;90.30
35920;DHT22;36160;53.370;-6.196;2023-01-06T02:03:38;7.70;90.40
35920;DHT22;36160;53.370;-6.196;2023-01-06T02:06:11;7.70;91.90
35920;DHT22;36160;53.370;-6.196;2023-01-06T02:11:43;7.70;84.70
35920;DHT22;36160;53.370;-6.196;2023-01-06T02:14:11;7.70;82.90
35920;DHT22;36160;53.370;-6.196;2023-01-06T02:25:54;7.60;80.50
35920;DHT22;36160;53.370;-6.196;2023-01-06T02:37:21;7.60;67.30
35920;DHT22;36160;53.370;-6.196;2023-01-06T02:50:32;7.70;74.80
35920;DHT22;36160;53.370;-6.196;2023-01-06T02:56:14;7.60;76.10
35920;DHT22;36160;53.370;-6.196;2023-01-06T02:59:03;7.60;83.70
35920;DHT22;36160;53.370;-6.196;2023-01-06T03:01:35;7.60;81.60
35920;DHT22;36160;53.370;-6.196;2023-01-06T03:04:13;7.60;86.60
35920;DHT22;36160;53.370;-6.196;2023-01-06T03:06:41;7.60;85.90
35920;DHT22;36160;53.370;-6.196;2023-01-06T03:09:13;7.60;88.00
35920;DHT22;36160;53.370;-6.196;2023-01-06T03:11:40;7.60;90.60
35920;DHT22;36160;53.370;-6.196;2023-01-06T03:14:31;7.50;92.60
35920;DHT22;36160;53.370;-6.196;2023-01-06T03:16:57;7.50;92.90
35920;DHT22;36160;53.370;-6.196;2023-01-06T03:19:23;7.50;94.00
35920;DHT22;36160;53.370;-6.196;2023-01-06T03:21:50;7.50;94.30
35920;DHT22;36160;53.370;-6.196;2023-01-06T03:24:16;7.40;94.30
35920;DHT22;36160;53.370;-6.196;2023-01-06T03:26:43;7.40;96.40
35920;DHT22;36160;53.370;-6.196;2023-01-06T03:29:12;7.40;94.80
35920;DHT22;36160;53.370;-6.196;2023-01-06T03:39:57;7.30;96.20
35920;DHT22;36160;53.370;-6.196;2023-01-06T03:45:55;7.20;98.90
35920;DHT22;36160;53.370;-6.196;2023-01-06T03:56:50;7.10;99.90
35920;DHT22;36160;53.370;-6.196;2023-01-06T03:59:24;7.10;99.90
35920;DHT22;36160;53.370;-6.196;2023-01-06T04:01:51;7.00;99.90
35920;DHT22;36160;53.370;-6.196;2023-01-06T04:04:17;7.00;99.90
35920;DHT22;36160;53.370;-6.196;2023-01-06T04:06:43;7.00;99.90
35920;DHT22;36160;53.370;-6.196;2023-01-06T04:09:09;7.00;99.90
35920;DHT22;36160;53.370;-6.196;2023-01-06T04:11:35;7.00;99.90
35920;DHT22;36160;53.370;-6.196;2023-01-06T04:14:19;7.00;99.90
35920;DHT22;36160;53.370;-6.196;2023-01-06T04:16:45;7.00;99.90
35920;DHT22;36160;53.370;-6.196;2023-01-06T04:19:11;7.00;99.90
35920;DHT22;36160;53.370;-6.196;2023-01-06T04:21:36;7.00;99.90
35920;DHT22;36160;53.370;-6.196;2023-01-06T04:24:02;7.00;99.90
35920;DHT22;36160;53.370;-6.196;2023-01-06T04:26:28;6.90;99.90
35920;DHT22;36160;53.370;-6.196;2023-01-06T04:28:54;7.00;99.90
35920;DHT22;36160;53.370;-6.196;2023-01-06T04:31:19;6.90;99.90
35920;DHT22;36160;53.370;-6.196;2023-01-06T04:33:45;7.00;99.90
35920;DHT22;36160;53.370;-6.196;2023-01-06T04:36:11;6.90;99.90
35920;DHT22;36160;53.370;-6.196;2023-01-06T04:38:36;6.90;99.90
35920;DHT22;36160;53.370;-6.196;2023-01-06T04:41:02;6.90;99.90
35920;DHT22;36160;53.370;-6.196;2023-01-06T04:43:28;6.90;99.90
35920;DHT22;36160;53.370;-6.196;2023-01-06T04:45:56;6.90;99.90
35920;DHT22;36160;53.370;-6.196;2023-01-06T04:48:22;6.80;99.90
35920;DHT22;36160;53.370;-6.196;2023-01-06T04:50:48;6.90;99.90
35920;DHT22;36160;53.370;-6.196;2023-01-06T04:53:14;6.90;99.90
35920;DHT22;36160;53.370;-6.196;2023-01-06T04:55:40;6.90;99.90
35920;DHT22;36160;53.370;-6.196;2023-01-06T04:58:06;6.90;99.90
35920;DHT22;36160;53.370;-6.196;2023-01-06T05:00:32;6.90;99.90
35920;DHT22;36160;53.370;-6.196;2023-01-06T05:02:58;7.00;99.90
35920;DHT22;36160;53.370;-6.196;2023-01-06T05:05:23;7.00;99.90
35920;DHT22;36160;53.370;-6.196;2023-01-06T05:07:53;7.00;99.90
35920;DHT22;36160;53.370;-6.196;2023-01-06T05:10:19;7.10;99.90
35920;DHT22;36160;53.370;-6.196;2023-01-06T05:12:44;7.10;99.50
35920;DHT22;36160;53.370;-6.196;2023-01-06T05:15:10;7.20;95.10
35920;DHT22;36160;53.370;-6.196;2023-01-06T05:17:36;7.20;95.00
35920;DHT22;36160;53.370;-6.196;2023-01-06T05:20:02;7.20;94.80
35920;DHT22;36160;53.370;-6.196;2023-01-06T05:22:28;7.30;96.10
35920;DHT22;36160;53.370;-6.196;2023-01-06T05:24:54;7.30;97.30
35920;DHT22;36160;53.370;-6.196;2023-01-06T05:27:19;7.30;99.50
35920;DHT22;36160;53.370;-6.196;2023-01-06T05:29:45;7.20;99.90
35920;DHT22;36160;53.370;-6.196;2023-01-06T05:32:11;7.20;99.90
35920;DHT22;36160;53.370;-6.196;2023-01-06T05:34:37;7.20;99.90
35920;DHT22;36160;53.370;-6.196;2023-01-06T05:37:02;7.20;99.90
35920;DHT22;36160;53.370;-6.196;2023-01-06T05:39:28;7.20;99.90
35920;DHT22;36160;53.370;-6.196;2023-01-06T05:41:54;7.10;99.90
35920;DHT22;36160;53.370;-6.196;2023-01-06T05:44:19;7.10;99.90
35920;DHT22;36160;53.370;-6.196;2023-01-06T05:46:45;7.10;99.90
35920;DHT22;36160;53.370;-6.196;2023-01-06T05:49:11;7.10;99.90
35920;DHT22;36160;53.370;-6.196;2023-01-06T05:51:36;7.10;99.90
35920;DHT22;36160;53.370;-6.196;2023-01-06T05:54:07;7.20;99.90
35920;DHT22;36160;53.370;-6.196;2023-01-06T05:56:33;7.10;99.90
35920;DHT22;36160;53.370;-6.196;2023-01-06T05:58:59;7.10;99.90
35920;DHT22;36160;53.370;-6.196;2023-01-06T06:01:28;7.20;99.90
35920;DHT22;36160;53.370;-6.196;2023-01-06T06:03:55;7.20;99.90
35920;DHT22;36160;53.370;-6.196;2023-01-06T06:06:23;7.10;99.90
35920;DHT22;36160;53.370;-6.196;2023-01-06T06:08:49;7.10;99.90
35920;DHT22;36160;53.370;-6.196;2023-01-06T06:11:17;7.10;99.90
35920;DHT22;36160;53.370;-6.196;2023-01-06T06:13:48;7.10;99.90
35920;DHT22;36160;53.370;-6.196;2023-01-06T06:16:15;7.10;99.90
35920;DHT22;36160;53.370;-6.196;2023-01-06T06:18:42;7.00;99.90
35920;DHT22;36160;53.370;-6.196;2023-01-06T06:21:14;7.10;99.90
35920;DHT22;36160;53.370;-6.196;2023-01-06T06:23:39;7.10;99.90
35920;DHT22;36160;53.370;-6.196;2023-01-06T06:26:07;7.10;99.90
35920;DHT22;36160;53.370;-6.196;2023-01-06T06:28:33;7.00;99.90
35920;DHT22;36160;53.370;-6.196;2023-01-06T06:31:04;7.00;99.90
35920;DHT22;36160;53.370;-6.196;2023-01-06T06:33:31;7.00;99.90
35920;DHT22;36160;53.370;-6.196;2023-01-06T06:35:58;7.00;99.90
35920;DHT22;36160;53.370;-6.196;2023-01-06T06:38:24;7.10;99.90
35920;DHT22;36160;53.370;-6.196;2023-01-06T06:40:49;7.10;99.90
35920;DHT22;36160;53.370;-6.196;2023-01-06T06:43:15;7.10;99.90
35920;DHT22;36160;53.370;-6.196;2023-01-06T06:45:44;7.10;99.90
35920;DHT22;36160;53.370;-6.196;2023-01-06T06:48:09;7.10;99.90
35920;DHT22;36160;53.370;-6.196;2023-01-06T06:50:35;7.10;99.90
35920;DHT22;36160;53.370;-6.196;2023-01-06T06:53:01;7.10;99.90
35920;DHT22;36160;53.370;-6.196;2023-01-06T06:55:27;7.10;99.90
35920;DHT22;36160;53.370;-6.196;2023-01-06T06:57:52;7.30;99.90
35920;DHT22;36160;53.370;-6.196;2023-01-06T07:00:19;7.30;99.90
35920;DHT22;36160;53.370;-6.196;2023-01-06T07:02:48;7.30;99.90
35920;DHT22;36160;53.370;-6.196;2023-01-06T07:05:15;7.30;99.90
35920;DHT22;36160;53.370;-6.196;2023-01-06T07:07:41;7.40;99.90
35920;DHT22;36160;53.370;-6.196;2023-01-06T07:10:07;7.30;99.90
35920;DHT22;36160;53.370;-6.196;2023-01-06T07:12:33;7.40;99.90
35920;DHT22;36160;53.370;-6.196;2023-01-06T07:14:59;7.40;99.90
35920;DHT22;36160;53.370;-6.196;2023-01-06T07:17:26;7.40;99.90
35920;DHT22;36160;53.370;-6.196;2023-01-06T07:19:52;7.40;99.90
35920;DHT22;36160;53.370;-6.196;2023-01-06T07:22:18;7.40;99.90
35920;DHT22;36160;53.370;-6.196;2023-01-06T07:24:43;7.40;99.90
35920;DHT22;36160;53.370;-6.196;2023-01-06T07:27:09;7.50;99.90
35920;DHT22;36160;53.370;-6.196;2023-01-06T07:29:35;7.50;99.90
35920;DHT22;36160;53.370;-6.196;2023-01-06T07:32:01;7.50;99.90
35920;DHT22;36160;53.370;-6.196;2023-01-06T07:34:26;7.60;99.90
35920;DHT22;36160;53.370;-6.196;2023-01-06T07:36:52;7.50;99.90
35920;DHT22;36160;53.370;-6.196;2023-01-06T07:39:17;7.60;99.90
35920;DHT22;36160;53.370;-6.196;2023-01-06T07:41:43;7.50;99.90
35920;DHT22;36160;53.370;-6.196;2023-01-06T07:44:09;7.60;99.90
35920;DHT22;36160;53.370;-6.196;2023-01-06T07:46:34;7.60;99.90
35920;DHT22;36160;53.370;-6.196;2023-01-06T07:49:00;7.60;99.90
35920;DHT22;36160;53.370;-6.196;2023-01-06T07:51:26;7.70;99.90
35920;DHT22;36160;53.370;-6.196;2023-01-06T07:53:51;7.70;99.90
35920;DHT22;36160;53.370;-6.196;2023-01-06T07:56:17;7.60;99.90
35920;DHT22;36160;53.370;-6.196;2023-01-06T07:58:43;7.60;99.90
35920;DHT22;36160;53.370;-6.196;2023-01-06T08:01:08;7.70;99.90
35920;DHT22;36160;53.370;-6.196;2023-01-06T08:03:34;7.60;99.90
35920;DHT22;36160;53.370;-6.196;2023-01-06T08:06:08;7.60;99.90
35920;DHT22;36160;53.370;-6.196;2023-01-06T08:08:38;7.60;99.90
35920;DHT22;36160;53.370;-6.196;2023-01-06T08:11:10;7.60;99.90
35920;DHT22;36160;53.370;-6.196;2023-01-06T08:13:36;7.70;99.90
35920;DHT22;36160;53.370;-6.196;2023-01-06T08:16:06;7.60;99.90
35920;DHT22;36160;53.370;-6.196;2023-01-06T08:18:32;7.60;99.90
35920;DHT22;36160;53.370;-6.196;2023-01-06T08:21:02;7.60;99.90
35920;DHT22;36160;53.370;-6.196;2023-01-06T08:23:29;7.60;99.90
35920;DHT22;36160;53.370;-6.196;2023-01-06T08:26:07;7.60;99.90
35920;DHT22;36160;53.370;-6.196;2023-01-06T08:28:33;7.60;99.90
35920;DHT22;36160;53.370;-6.196;2023-01-06T08:30:59;7.60;99.90
35920;DHT22;36160;53.370;-6.196;2023-01-06T08:33:26;7.60;99.90
35920;DHT22;36160;53.370;-6.196;2023-01-06T08:36:01;7.60;99.90
35920;DHT22;36160;53.370;-6.196;2023-01-06T08:38:28;7.60;99.90
35920;DHT22;36160;53.370;-6.196;2023-01-06T08:40:55;7.60;99.90
35920;DHT22;36160;53.370;-6.196;2023-01-06T08:43:22;7.60;99.90
35920;DHT22;36160;53.370;-6.196;2023-01-06T08:45:47;7.60;99.90
35920;DHT22;36160;53.370;-6.196;2023-01-06T08:48:13;7.50;99.90
35920;DHT22;36160;53.370;-6.196;2023-01-06T08:50:40;7.60;99.90
35920;DHT22;36160;53.370;-6.196;2023-01-06T08:53:07;7.50;99.90
35920;DHT22;36160;53.370;-6.196;2023-01-06T08:55:33;7.50;99.90
35920;DHT22;36160;53.370;-6.196;2023-01-06T08:57:59;7.50;99.90
35920;DHT22;36160;53.370;-6.196;2023-01-06T09:00:24;7.50;99.90
35920;DHT22;36160;53.370;-6.196;2023-01-06T09:02:50;7.60;99.90
35920;DHT22;36160;53.370;-6.196;2023-01-06T09:05:16;7.60;99.90
35920;DHT22;36160;53.370;-6.196;2023-01-06T09:07:42;7.60;99.90
35920;DHT22;36160;53.370;-6.196;2023-01-06T09:10:08;7.70;99.90
35920;DHT22;36160;53.370;-6.196;2023-01-06T09:12:33;7.70;99.90
35920;DHT22;36160;53.370;-6.196;2023-01-06T09:14:59;7.70;99.90
35920;DHT22;36160;53.370;-6.196;2023-01-06T09:17:25;7.70;99.90
35920;DHT22;36160;53.370;-6.196;2023-01-06T09:19:50;7.80;99.90
35920;DHT22;36160;53.370;-6.196;2023-01-06T09:22:16;7.80;99.90
35920;DHT22;36160;53.370;-6.196;2023-01-06T09:24:42;7.90;99.90
35920;DHT22;36160;53.370;-6.196;2023-01-06T09:27:07;7.90;99.90
35920;DHT22;36160;53.370;-6.196;2023-01-06T09:29:33;7.90;99.90
35920;DHT22;36160;53.370;-6.196;2023-01-06T09:31:59;8.00;99.90
35920;DHT22;36160;53.370;-6.196;2023-01-06T09:34:25;8.00;99.90
35920;DHT22;36160;53.370;-6.196;2023-01-06T09:36:50;8.00;99.90
35920;DHT22;36160;53.370;-6.196;2023-01-06T09:39:16;8.00;99.90
35920;DHT22;36160;53.370;-6.196;2023-01-06T09:44:19;8.10;99.90
35920;DHT22;36160;53.370;-6.196;2023-01-06T09:46:48;8.20;99.90
35920;DHT22;36160;53.370;-6.196;2023-01-06T09:49:38;8.20;99.90
35920;DHT22;36160;53.370;-6.196;2023-01-06T09:52:30;8.20;99.90
35920;DHT22;36160;53.370;-6.196;2023-01-06T09:55:36;8.20;99.90
35920;DHT22;36160;53.370;-6.196;2023-01-06T09:58:12;8.20;99.90
35920;DHT22;36160;53.370;-6.196;2023-01-06T10:00:40;8.20;99.90
35920;DHT22;36160;53.370;-6.196;2023-01-06T10:03:17;8.20;99.90
35920;DHT22;36160;53.370;-6.196;2023-01-06T10:16:58;8.40;99.90
35920;DHT22;36160;53.370;-6.196;2023-01-06T10:22:14;8.40;99.90
35920;DHT22;36160;53.370;-6.196;2023-01-06T10:25:18;8.40;99.90
35920;DHT22;36160;53.370;-6.196;2023-01-06T10:27:53;8.40;99.90
35920;DHT22;36160;53.370;-6.196;2023-01-06T10:30:24;8.40;99.90
35920;DHT22;36160;53.370;-6.196;2023-01-06T10:32:51;8.50;99.90
35920;DHT22;36160;53.370;-6.196;2023-01-06T10:35:20;8.60;99.90
35920;DHT22;36160;53.370;-6.196;2023-01-06T10:37:48;8.50;99.90
35920;DHT22;36160;53.370;-6.196;2023-01-06T10:40:26;8.60;99.90
35920;DHT22;36160;53.370;-6.196;2023-01-06T10:43:13;8.60;99.90
35920;DHT22;36160;53.370;-6.196;2023-01-06T10:45:45;8.70;99.90
35920;DHT22;36160;53.370;-6.196;2023-01-06T10:48:14;8.70;99.90
35920;DHT22;36160;53.370;-6.196;2023-01-06T10:50:40;8.70;99.90
35920;DHT22;36160;53.370;-6.196;2023-01-06T10:53:08;8.80;99.90
35920;DHT22;36160;53.370;-6.196;2023-01-06T10:55:53;8.90;99.90
35920;DHT22;36160;53.370;-6.196;2023-01-06T11:01:16;9.00;99.90
35920;DHT22;36160;53.370;-6.196;2023-01-06T11:04:07;9.10;99.90
35920;DHT22;36160;53.370;-6.196;2023-01-06T11:06:39;9.10;99.90
35920;DHT22;36160;53.370;-6.196;2023-01-06T11:09:29;9.10;99.90
35920;DHT22;36160;53.370;-6.196;2023-01-06T11:11:55;9.10;99.90
35920;DHT22;36160;53.370;-6.196;2023-01-06T11:14:25;9.20;95.80
35920;DHT22;36160;53.370;-6.196;2023-01-06T11:17:02;9.20;94.60
35920;DHT22;36160;53.370;-6.196;2023-01-06T11:22:00;9.30;93.40
35920;DHT22;36160;53.370;-6.196;2023-01-06T11:24:26;9.30;93.80
35920;DHT22;36160;53.370;-6.196;2023-01-06T11:26:56;9.40;93.60
35920;DHT22;36160;53.370;-6.196;2023-01-06T11:29:33;9.40;90.10
35920;DHT22;36160;53.370;-6.196;2023-01-06T11:32:18;9.40;85.00
35920;DHT22;36160;53.370;-6.196;2023-01-06T11:35:04;9.50;80.70
35920;DHT22;36160;53.370;-6.196;2023-01-06T11:39:58;9.60;78.30
35920;DHT22;36160;53.370;-6.196;2023-01-06T11:42:24;9.70;74.90
35920;DHT22;36160;53.370;-6.196;2023-01-06T11:44:50;9.60;71.50
35920;DHT22;36160;53.370;-6.196;2023-01-06T11:47:22;9.60;59.00
35920;DHT22;36160;53.370;-6.196;2023-01-06T11:49:56;9.60;47.00
35920;DHT22;36160;53.370;-6.196;2023-01-06T11:57:48;9.60;56.60
35920;DHT22;36160;53.370;-6.196;2023-01-06T12:08:41;9.80;68.40
35920;DHT22;36160;53.370;-6.196;2023-01-06T12:14:24;9.90;66.90
35920;DHT22;36160;53.370;-6.196;2023-01-06T12:17:34;9.90;69.10
35920;DHT22;36160;53.370;-6.196;2023-01-06T12:20:29;9.90;74.40
35920;DHT22;36160;53.370;-6.196;2023-01-06T12:23:02;10.00;76.30
35920;DHT22;36160;53.370;-6.196;2023-01-06T12:25:37;10.00;75.00
35920;DHT22;36160;53.370;-6.196;2023-01-06T12:28:06;10.10;71.90
35920;DHT22;36160;53.370;-6.196;2023-01-06T12:30:49;10.10;73.10
35920;DHT22;36160;53.370;-6.196;2023-01-06T12:33:50;10.10;77.20
35920;DHT22;36160;53.370;-6.196;2023-01-06T12:36:39;10.10;76.60
35920;DHT22;36160;53.370;-6.196;2023-01-06T12:39:29;10.20;82.00
35920;DHT22;36160;53.370;-6.196;2023-01-06T12:42:44;10.20;79.30
35920;DHT22;36160;53.370;-6.196;2023-01-06T12:44:59;10.30;69.60
35920;DHT22;36160;53.370;-6.196;2023-01-06T12:47:45;10.30;71.50
35920;DHT22;36160;53.370;-6.196;2023-01-06T12:52:49;10.40;60.60
35920;DHT22;36160;53.370;-6.196;2023-01-06T12:55:26;10.50;48.70
35920;DHT22;36160;53.370;-6.196;2023-01-06T12:57:58;10.70;32.10
35920;DHT22;36160;53.370;-6.196;2023-01-06T13:00:38;10.80;32.10
35920;DHT22;36160;53.370;-6.196;2023-01-06T13:03:30;10.90;22.60
35920;DHT22;36160;53.370;-6.196;2023-01-06T13:09:06;10.90;21.70
35920;DHT22;36160;53.370;-6.196;2023-01-06T13:14:31;11.10;9.60
35920;DHT22;36160;53.370;-6.196;2023-01-06T13:19:49;11.20;1.00
35920;DHT22;36160;53.370;-6.196;2023-01-06T13:28:26;11.00;1.00
35920;DHT22;36160;53.370;-6.196;2023-01-06T13:39:25;11.10;1.00
35920;DHT22;36160;53.370;-6.196;2023-01-06T13:41:56;11.10;1.00
35920;DHT22;36160;53.370;-6.196;2023-01-06T13:44:27;11.10;1.00
35920;DHT22;36160;53.370;-6.196;2023-01-06T13:47:02;11.10;1.00
35920;DHT22;36160;53.370;-6.196;2023-01-06T13:49:30;11.10;1.00
35920;DHT22;36160;53.370;-6.196;2023-01-06T13:51:56;11.10;1.00
35920;DHT22;36160;53.370;-6.196;2023-01-06T14:07:58;11.10;1.00
35920;DHT22;36160;53.370;-6.196;2023-01-06T14:13:40;11.10;1.00
35920;DHT22;36160;53.370;-6.196;2023-01-06T14:16:10;11.10;1.00
35920;DHT22;36160;53.370;-6.196;2023-01-06T14:18:49;11.00;1.00
35920;DHT22;36160;53.370;-6.196;2023-01-06T14:21:27;11.00;1.00
35920;DHT22;36160;53.370;-6.196;2023-01-06T14:24:02;11.00;1.00
35920;DHT22;36160;53.370;-6.196;2023-01-06T14:26:48;11.00;1.00
35920;DHT22;36160;53.370;-6.196;2023-01-06T14:32:09;10.90;1.00
35920;DHT22;36160;53.370;-6.196;2023-01-06T14:34:37;10.90;9.40
35920;DHT22;36160;53.370;-6.196;2023-01-06T14:37:11;10.80;1.60
35920;DHT22;36160;53.370;-6.196;2023-01-06T14:39:40;10.80;1.00
35920;DHT22;36160;53.370;-6.196;2023-01-06T14:42:28;10.80;1.00
35920;DHT22;36160;53.370;-6.196;2023-01-06T14:44:59;10.80;1.00
35920;DHT22;36160;53.370;-6.196;2023-01-06T14:47:46;10.80;1.00
35920;DHT22;36160;53.370;-6.196;2023-01-06T14:50:40;10.80;1.00
35920;DHT22;36160;53.370;-6.196;2023-01-06T14:53:29;10.80;1.00
35920;DHT22;36160;53.370;-6.196;2023-01-06T14:55:58;10.80;1.00
35920;DHT22;36160;53.370;-6.196;2023-01-06T15:00:54;10.80;1.30
35920;DHT22;36160;53.370;-6.196;2023-01-06T15:03:21;10.80;7.30
35920;DHT22;36160;53.370;-6.196;2023-01-06T15:05:47;10.70;19.50
35920;DHT22;36160;53.370;-6.196;2023-01-06T15:10:44;10.70;39.80
35920;DHT22;36160;53.370;-6.196;2023-01-06T15:13:29;10.70;47.30
35920;DHT22;36160;53.370;-6.196;2023-01-06T15:16:07;10.70;50.80
35920;DHT22;36160;53.370;-6.196;2023-01-06T15:18:34;10.70;55.90
35920;DHT22;36160;53.370;-6.196;2023-01-06T15:21:02;10.60;64.00
35920;DHT22;36160;53.370;-6.196;2023-01-06T15:23:28;10.60;66.40
35920;DHT22;36160;53.370;-6.196;2023-01-06T15:25:54;10.60;74.90
35920;DHT22;36160;53.370;-6.196;2023-01-06T15:28:32;10.60;81.70
35920;DHT22;36160;53.370;-6.196;2023-01-06T15:30:58;10.60;91.00
35920;DHT22;36160;53.370;-6.196;2023-01-06T15:33:37;10.60;97.00
35920;DHT22;36160;53.370;-6.196;2023-01-06T15:36:09;10.60;99.90
35920;DHT22;36160;53.370;-6.196;2023-01-06T15:38:40;10.60;99.90
35920;DHT22;36160;53.370;-6.196;2023-01-06T15:41:07;10.60;99.90
35920;DHT22;36160;53.370;-6.196;2023-01-06T15:43:55;10.50;99.90
35920;DHT22;36160;53.370;-6.196;2023-01-06T15:46:21;10.50;99.90
35920;DHT22;36160;53.370;-6.196;2023-01-06T15:48:47;10.50;99.90
35920;DHT22;36160;53.370;-6.196;2023-01-06T15:51:16;10.50;99.90
35920;DHT22;36160;53.370;-6.196;2023-01-06T15:53:43;10.50;99.90
35920;DHT22;36160;53.370;-6.196;2023-01-06T15:56:27;10.50;99.90
35920;DHT22;36160;53.370;-6.196;2023-01-06T15:58:55;10.50;99.90
35920;DHT22;36160;53.370;-6.196;2023-01-06T16:01:22;10.40;99.90
35920;DHT22;36160;53.370;-6.196;2023-01-06T16:03:50;10.30;99.90
35920;DHT22;36160;53.370;-6.196;2023-01-06T16:06:44;10.30;99.90
35920;DHT22;36160;53.370;-6.196;2023-01-06T16:14:36;10.10;99.90
35920;DHT22;36160;53.370;-6.196;2023-01-06T16:17:25;10.10;99.90
35920;DHT22;36160;53.370;-6.196;2023-01-06T16:20:05;10.10;99.90
35920;DHT22;36160;53.370;-6.196;2023-01-06T16:22:36;10.10;99.90
35920;DHT22;36160;53.370;-6.196;2023-01-06T16:25:27;10.00;99.90
35920;DHT22;36160;53.370;-6.196;2023-01-06T16:30:20;9.90;99.90
35920;DHT22;36160;53.370;-6.196;2023-01-06T16:32:47;10.00;99.90
35920;DHT22;36160;53.370;-6.196;2023-01-06T16:35:18;10.00;99.90
35920;DHT22;36160;53.370;-6.196;2023-01-06T16:37:44;10.00;99.90
35920;DHT22;36160;53.370;-6.196;2023-01-06T16:40:15;10.00;99.90
35920;DHT22;36160;53.370;-6.196;2023-01-06T16:42:41;10.00;99.90
35920;DHT22;36160;53.370;-6.196;2023-01-06T16:45:31;10.00;99.90
35920;DHT22;36160;53.370;-6.196;2023-01-06T16:47:58;10.00;99.90
35920;DHT22;36160;53.370;-6.196;2023-01-06T16:50:32;10.10;99.90
35920;DHT22;36160;53.370;-6.196;2023-01-06T16:55:37;10.10;99.90
35920;DHT22;36160;53.370;-6.196;2023-01-06T16:58:17;10.10;99.90
35920;DHT22;36160;53.370;-6.196;2023-01-06T17:00:45;10.10;99.90
35920;DHT22;36160;53.370;-6.196;2023-01-06T17:03:20;10.10;99.90
35920;DHT22;36160;53.370;-6.196;2023-01-06T17:05:46;10.10;99.90
35920;DHT22;36160;53.370;-6.196;2023-01-06T17:08:21;10.10;99.90
35920;DHT22;36160;53.370;-6.196;2023-01-06T17:10:48;10.10;99.90
35920;DHT22;36160;53.370;-6.196;2023-01-06T17:13:15;10.10;99.90
35920;DHT22;36160;53.370;-6.196;2023-01-06T17:16:19;10.10;99.90
35920;DHT22;36160;53.370;-6.196;2023-01-06T17:18:54;10.00;99.90
35920;DHT22;36160;53.370;-6.196;2023-01-06T17:21:40;10.10;99.90
35920;DHT22;36160;53.370;-6.196;2023-01-06T17:24:16;10.00;99.90
35920;DHT22;36160;53.370;-6.196;2023-01-06T17:26:48;10.10;99.90
35920;DHT22;36160;53.370;-6.196;2023-01-06T17:29:16;10.10;99.90
35920;DHT22;36160;53.370;-6.196;2023-01-06T17:31:44;10.10;99.90
35920;DHT22;36160;53.370;-6.196;2023-01-06T17:34:14;10.10;99.90
35920;DHT22;36160;53.370;-6.196;2023-01-06T17:36:42;10.10;99.90
35920;DHT22;36160;53.370;-6.196;2023-01-06T17:39:18;10.20;99.90
35920;DHT22;36160;53.370;-6.196;2023-01-06T17:41:45;10.20;99.90
35920;DHT22;36160;53.370;-6.196;2023-01-06T17:44:14;10.20;99.90
35920;DHT22;36160;53.370;-6.196;2023-01-06T17:46:40;10.20;99.90
35920;DHT22;36160;53.370;-6.196;2023-01-06T17:49:43;10.30;99.90
35920;DHT22;36160;53.370;-6.196;2023-01-06T17:52:31;10.30;99.90
35920;DHT22;36160;53.370;-6.196;2023-01-06T17:57:53;10.30;99.90
35920;DHT22;36160;53.370;-6.196;2023-01-06T18:00:35;10.30;99.90
35920;DHT22;36160;53.370;-6.196;2023-01-06T18:03:05;10.30;99.90
35920;DHT22;36160;53.370;-6.196;2023-01-06T18:10:33;10.20;99.90
35920;DHT22;36160;53.370;-6.196;2023-01-06T18:13:35;10.20;99.90
35920;DHT22;36160;53.370;-6.196;2023-01-06T18:16:04;10.20;99.90
35920;DHT22;36160;53.370;-6.196;2023-01-06T18:18:39;10.20;99.90
35920;DHT22;36160;53.370;-6.196;2023-01-06T18:23:49;10.10;99.90
35920;DHT22;36160;53.370;-6.196;2023-01-06T18:29:01;10.20;99.90
35920;DHT22;36160;53.370;-6.196;2023-01-06T18:31:35;10.10;99.90
35920;DHT22;36160;53.370;-6.196;2023-01-06T18:34:25;10.10;99.90
35920;DHT22;36160;53.370;-6.196;2023-01-06T18:36:52;10.10;99.90
35920;DHT22;36160;53.370;-6.196;2023-01-06T18:39:28;10.20;99.90
35920;DHT22;36160;53.370;-6.196;2023-01-06T18:42:30;10.10;99.90